Time;durP1;ratioP1;P1;durP2;ratioP2;P2;SDS_P1;SDS_P2;PMS_P1;PMS_P2;Temp;Humidity;BMP_temperature;BMP_pressure;BME280_temperature;BME280_humidity;BME280_pressure;Samples;Min_cycle;Max_cycle;Signal;HPM_P1;HPM_P2
2022/10/30 00:02:06;;;;;;;10.97;9.13;;;14.10;99.90;;;;;;5041605;28;20629;-89
2022/10/30 00:04:33;;;;;;;20.13;9.10;;;14.10;99.90;;;;;;5029212;28;20626;-89
2022/10/30 00:06:59;;;;;;;11.87;8.70;;;14.10;99.90;;;;;;5046271;28;21218;-90
2022/10/30 00:09:26;;;;;;;18.10;9.00;;;14.00;99.90;;;;;;5045234;28;20633;-89
2022/10/30 00:11:54;;;;;;;13.43;9.50;;;14.10;99.90;;;;;;5039986;28;20633;-89
2022/10/30 00:14:21;;;;;;;12.97;8.57;;;14.00;99.90;;;;;;5041919;28;20636;-90
2022/10/30 00:16:47;;;;;;;15.80;10.90;;;14.00;99.90;;;;;;5042969;28;20663;-90
2022/10/30 00:19:14;;;;;;;12.40;9.93;;;14.00;99.90;;;;;;5041474;28;20626;-90
2022/10/30 00:21:41;;;;;;;14.60;8.60;;;14.00;99.90;;;;;;5046064;28;21198;-88
2022/10/30 00:24:08;;;;;;;16.87;9.23;;;13.90;99.90;;;;;;5050882;28;20677;-89
2022/10/30 00:26:35;;;;;;;13.63;8.67;;;13.90;99.90;;;;;;5048519;28;20661;-90
2022/10/30 00:29:03;;;;;;;13.27;9.60;;;13.90;99.90;;;;;;5039585;28;20625;-90
2022/10/30 00:31:30;;;;;;;11.53;9.60;;;13.90;99.90;;;;;;5043825;28;20625;-91
2022/10/30 00:33:57;;;;;;;14.03;9.20;;;13.90;99.90;;;;;;5048853;28;20621;-90
2022/10/30 00:36:24;;;;;;;13.50;9.80;;;13.80;99.90;;;;;;5045871;28;20666;-90
2022/10/30 00:38:51;;;;;;;14.57;9.50;;;13.90;99.90;;;;;;5046588;28;20630;-90
2022/10/30 00:41:21;;;;;;;10.70;9.60;;;13.90;99.90;;;;;;5042956;28;20626;-89
2022/10/30 00:43:48;;;;;;;16.40;10.50;;;13.90;99.90;;;;;;5040262;28;20662;-89
2022/10/30 00:46:20;;;;;;;14.67;10.20;;;13.90;99.90;;;;;;5043576;28;20654;-90
2022/10/30 00:48:52;;;;;;;16.83;10.00;;;13.90;99.90;;;;;;5043461;28;20725;-90
2022/10/30 00:51:20;;;;;;;14.87;9.50;;;13.90;99.90;;;;;;5040094;28;20630;-89
2022/10/30 00:53:48;;;;;;;13.43;8.77;;;13.90;99.90;;;;;;5044272;28;20662;-89
2022/10/30 00:56:18;;;;;;;14.23;10.23;;;13.90;99.90;;;;;;5042896;28;20638;-89
2022/10/30 00:58:50;;;;;;;13.03;9.57;;;13.80;99.90;;;;;;5046216;28;20632;-90
2022/10/30 01:01:23;;;;;;;12.77;9.63;;;13.80;99.90;;;;;;5046052;28;20667;-89
2022/10/30 01:03:53;;;;;;;16.60;10.13;;;13.70;99.90;;;;;;5041941;28;20661;-89
2022/10/30 01:06:19;;;;;;;13.40;8.07;;;13.70;99.90;;;;;;5044781;28;20658;-89
2022/10/30 01:08:47;;;;;;;11.93;9.40;;;13.70;99.90;;;;;;5054390;28;20630;-90
2022/10/30 01:11:14;;;;;;;15.87;9.70;;;13.70;99.90;;;;;;5046153;28;20672;-89
2022/10/30 01:13:44;;;;;;;16.40;8.77;;;13.70;99.90;;;;;;5048922;28;20661;-88
2022/10/30 01:16:33;;;;;;;14.20;10.07;;;13.70;99.90;;;;;;5046015;28;21253;-89
2022/10/30 01:19:05;;;;;;;13.00;10.10;;;13.40;99.90;;;;;;5037596;28;21045;-89
2022/10/30 01:21:41;;;;;;;14.80;8.67;;;13.70;99.90;;;;;;5043754;28;20630;-90
2022/10/30 01:24:22;;;;;;;11.87;9.70;;;13.70;99.90;;;;;;5040896;28;20688;-89
2022/10/30 01:26:55;;;;;;;12.30;8.40;;;13.70;99.90;;;;;;5046980;28;20688;-90
2022/10/30 01:29:34;;;;;;;19.10;12.30;;;13.70;99.90;;;;;;5040782;28;21000;-89
2022/10/30 01:32:17;;;;;;;12.00;8.70;;;13.60;99.90;;;;;;5040764;28;20691;-89
2022/10/30 01:34:51;;;;;;;16.60;10.00;;;13.60;99.90;;;;;;5045103;28;20633;-89
2022/10/30 01:37:24;;;;;;;14.57;9.23;;;13.60;99.90;;;;;;5042106;28;20654;-90
2022/10/30 01:39:52;;;;;;;10.53;8.50;;;13.60;99.90;;;;;;5043264;28;21169;-89
2022/10/30 01:42:46;;;;;;;14.47;9.40;;;13.60;99.90;;;;;;5046400;28;20669;-89
2022/10/30 01:45:16;;;;;;;15.17;9.73;;;13.60;99.90;;;;;;5044746;28;20629;-89
2022/10/30 01:48:06;;;;;;;16.43;9.87;;;13.60;99.90;;;;;;5044107;28;20653;-90
2022/10/30 01:50:42;;;;;;;15.67;9.57;;;13.60;99.90;;;;;;5047755;28;20627;-89
2022/10/30 01:53:21;;;;;;;10.00;8.33;;;13.60;99.90;;;;;;5043327;28;20625;-89
2022/10/30 01:55:56;;;;;;;12.90;9.23;;;13.20;99.90;;;;;;5041834;28;20633;-89
2022/10/30 01:58:28;;;;;;;15.67;9.97;;;13.50;99.90;;;;;;5037754;28;20629;-89
2022/10/30 02:00:58;;;;;;;13.80;9.13;;;13.60;99.90;;;;;;5043992;28;20634;-89
2022/10/30 02:03:27;;;;;;;11.00;8.17;;;13.50;99.90;;;;;;5044107;28;20661;-90
2022/10/30 02:05:54;;;;;;;11.53;9.00;;;13.50;99.90;;;;;;5040873;28;20621;-89
2022/10/30 02:08:21;;;;;;;12.93;8.10;;;13.50;99.90;;;;;;5045592;28;20649;-89
2022/10/30 02:10:50;;;;;;;11.93;9.03;;;13.50;99.90;;;;;;5043250;28;20622;-89
2022/10/30 02:13:18;;;;;;;11.00;8.10;;;13.50;99.90;;;;;;5040504;28;20631;-90
2022/10/30 02:15:46;;;;;;;10.17;8.17;;;13.10;99.90;;;;;;5045790;28;20626;-89
2022/10/30 02:18:13;;;;;;;10.30;7.30;;;13.40;99.90;;;;;;5041073;28;20622;-89
2022/10/30 02:20:42;;;;;;;15.87;7.97;;;13.70;99.90;;;;;;5042680;28;20635;-89
2022/10/30 02:23:12;;;;;;;14.03;8.63;;;13.20;99.90;;;;;;5042060;28;20667;-90
2022/10/30 02:25:38;;;;;;;13.87;9.00;;;13.40;99.90;;;;;;5041674;28;21226;-89
2022/10/30 02:28:05;;;;;;;9.40;7.27;;;13.40;99.90;;;;;;5044198;28;20623;-90
2022/10/30 02:30:32;;;;;;;12.73;8.67;;;13.40;99.90;;;;;;5041301;28;20634;-90
2022/10/30 02:32:59;;;;;;;13.60;8.20;;;13.40;99.90;;;;;;5046447;28;20648;-89
2022/10/30 02:35:25;;;;;;;12.53;7.90;;;13.00;99.90;;;;;;5037452;28;20642;-89
2022/10/30 02:37:54;;;;;;;12.07;7.70;;;13.00;99.90;;;;;;5043257;28;20700;-90
2022/10/30 02:40:21;;;;;;;21.17;7.70;;;13.40;99.90;;;;;;5044107;28;20627;-89
2022/10/30 02:42:52;;;;;;;9.63;7.20;;;13.40;99.90;;;;;;5041983;28;20635;-90
2022/10/30 02:45:19;;;;;;;9.90;7.30;;;13.40;99.90;;;;;;5040915;28;20583;-90
2022/10/30 02:47:45;;;;;;;14.80;6.80;;;13.40;99.90;;;;;;5040717;28;20653;-90
2022/10/30 02:50:12;;;;;;;10.67;7.27;;;13.40;99.90;;;;;;5039077;28;20629;-90
2022/10/30 02:52:39;;;;;;;14.67;7.47;;;13.30;99.90;;;;;;5040172;28;20633;-90
2022/10/30 02:55:08;;;;;;;9.83;6.60;;;13.40;99.90;;;;;;5038432;28;21345;-89
2022/10/30 02:57:35;;;;;;;14.20;8.10;;;13.40;99.90;;;;;;5039450;28;20638;-89
2022/10/30 03:00:02;;;;;;;9.90;6.90;;;13.40;99.90;;;;;;5048582;28;20630;-90
2022/10/30 03:02:29;;;;;;;14.70;7.60;;;13.10;99.90;;;;;;5048703;28;20625;-90
2022/10/30 03:04:55;;;;;;;10.80;7.80;;;13.00;99.90;;;;;;5046286;28;21037;-90
2022/10/30 03:07:22;;;;;;;9.33;6.83;;;13.30;99.90;;;;;;5041725;28;20688;-89
2022/10/30 03:09:50;;;;;;;9.93;7.27;;;13.30;99.90;;;;;;5046008;28;20626;-89
2022/10/30 03:12:18;;;;;;;9.80;8.03;;;13.30;99.90;;;;;;5044219;28;20627;-89
2022/10/30 03:14:45;;;;;;;9.43;6.53;;;13.30;99.90;;;;;;5043070;28;20625;-90
2022/10/30 03:17:12;;;;;;;8.93;7.93;;;13.30;99.90;;;;;;5051718;28;20649;-90
2022/10/30 03:19:39;;;;;;;10.53;7.60;;;12.90;99.90;;;;;;5050190;28;20630;-90
2022/10/30 03:22:07;;;;;;;11.70;8.00;;;13.00;99.90;;;;;;5049474;28;20621;-90
2022/10/30 03:24:33;;;;;;;10.53;7.90;;;13.20;99.90;;;;;;5045184;28;21255;-89
2022/10/30 03:27:00;;;;;;;13.93;8.57;;;13.50;99.90;;;;;;5046998;28;20657;-89
2022/10/30 03:29:28;;;;;;;18.03;8.03;;;13.30;99.90;;;;;;5045983;28;20644;-89
2022/10/30 03:31:55;;;;;;;17.37;9.03;;;13.20;99.90;;;;;;5049474;28;20636;-90
2022/10/30 03:34:22;;;;;;;16.83;8.57;;;13.20;99.90;;;;;;5047218;28;20625;-90
2022/10/30 03:36:49;;;;;;;14.00;8.63;;;12.90;99.90;;;;;;5044573;28;20656;-91
2022/10/30 03:39:15;;;;;;;14.67;9.70;;;13.10;99.90;;;;;;5043602;28;21162;-90
2022/10/30 03:41:43;;;;;;;12.93;7.87;;;12.80;99.90;;;;;;5044332;28;20633;-89
2022/10/30 03:44:11;;;;;;;10.77;8.07;;;13.30;99.90;;;;;;5040104;28;20701;-89
2022/10/30 03:46:40;;;;;;;9.60;7.60;;;12.70;99.90;;;;;;5049251;28;20660;-90
2022/10/30 03:49:06;;;;;;;21.17;8.43;;;12.60;99.90;;;;;;5043029;28;20613;-89
2022/10/30 03:51:33;;;;;;;11.47;8.43;;;12.80;99.90;;;;;;5037731;28;21197;-90
2022/10/30 03:54:00;;;;;;;8.73;7.70;;;13.00;99.90;;;;;;5049386;28;20618;-90
2022/10/30 03:56:27;;;;;;;11.13;8.37;;;13.00;99.90;;;;;;5047254;28;20672;-89
2022/10/30 03:58:53;;;;;;;14.17;8.37;;;12.90;99.90;;;;;;5042947;28;20642;-90
2022/10/30 04:01:20;;;;;;;17.07;8.40;;;12.80;99.90;;;;;;5047239;28;20622;-89
2022/10/30 04:03:48;;;;;;;15.50;7.20;;;12.80;99.90;;;;;;5045728;28;20668;-90
2022/10/30 04:06:15;;;;;;;12.90;7.40;;;12.80;99.90;;;;;;5047244;28;20649;-90
2022/10/30 04:08:42;;;;;;;12.60;7.83;;;12.70;99.90;;;;;;5044954;28;20652;-90
2022/10/30 04:11:10;;;;;;;13.00;7.57;;;12.70;99.90;;;;;;5041449;28;20630;-90
2022/10/30 04:13:37;;;;;;;14.50;8.37;;;12.70;99.90;;;;;;5043309;28;20665;-90
2022/10/30 04:16:05;;;;;;;9.20;6.63;;;12.70;99.90;;;;;;5043406;28;20650;-90
2022/10/30 04:18:32;;;;;;;14.50;8.17;;;12.70;99.90;;;;;;5043087;28;20720;-91
2022/10/30 04:21:00;;;;;;;12.57;8.00;;;12.60;99.90;;;;;;5040579;28;20629;-89
2022/10/30 04:23:27;;;;;;;13.67;8.37;;;12.70;99.90;;;;;;5044685;28;20629;-89
2022/10/30 04:25:54;;;;;;;11.70;7.50;;;12.60;99.90;;;;;;5044846;28;20633;-89
2022/10/30 04:28:21;;;;;;;17.23;8.43;;;12.50;99.90;;;;;;5041917;28;20634;-89
2022/10/30 04:30:48;;;;;;;11.13;8.07;;;12.50;99.90;;;;;;5041442;28;20633;-90
2022/10/30 04:33:15;;;;;;;11.70;7.93;;;12.50;99.90;;;;;;5045669;28;20626;-90
2022/10/30 04:35:42;;;;;;;9.93;7.00;;;12.10;99.90;;;;;;5049896;28;20641;-89
2022/10/30 04:38:17;;;;;;;14.43;8.43;;;12.20;99.90;;;;;;5052858;28;21009;-90
2022/10/30 04:40:44;;;;;;;9.27;7.43;;;12.00;99.90;;;;;;5045186;28;21039;-90
2022/10/30 04:43:12;;;;;;;9.50;6.90;;;12.30;99.90;;;;;;5048569;28;20637;-89
2022/10/30 04:45:40;;;;;;;11.30;6.90;;;12.20;99.90;;;;;;5041532;28;20622;-89
2022/10/30 04:48:08;;;;;;;11.17;7.80;;;12.30;99.90;;;;;;5046851;28;20629;-90
2022/10/30 04:50:35;;;;;;;11.90;7.80;;;12.20;99.90;;;;;;5038754;28;21213;-89
2022/10/30 04:53:04;;;;;;;15.87;7.80;;;12.00;99.90;;;;;;5044886;28;20691;-89
2022/10/30 04:55:33;;;;;;;13.63;8.20;;;12.20;99.90;;;;;;5055114;28;20669;-89
2022/10/30 04:58:01;;;;;;;16.50;7.70;;;12.10;99.90;;;;;;5043767;28;20647;-90
2022/10/30 05:00:29;;;;;;;9.13;7.67;;;12.30;99.90;;;;;;5044152;28;20720;-89
2022/10/30 05:02:58;;;;;;;11.80;6.67;;;12.10;99.90;;;;;;5047994;28;20993;-89
2022/10/30 05:05:25;;;;;;;9.07;7.90;;;11.90;99.90;;;;;;5038649;28;21182;-89
2022/10/30 05:07:52;;;;;;;8.30;7.43;;;12.00;99.90;;;;;;5043223;28;20679;-89
2022/10/30 05:10:18;;;;;;;15.90;9.23;;;12.00;99.90;;;;;;5042520;28;21187;-90
2022/10/30 05:12:47;;;;;;;10.80;7.80;;;12.10;99.90;;;;;;5041057;28;21164;-90
2022/10/30 05:15:14;;;;;;;10.50;8.23;;;12.20;99.90;;;;;;5041246;28;20673;-90
2022/10/30 05:17:41;;;;;;;15.93;6.87;;;11.80;99.90;;;;;;5046028;28;20660;-89
2022/10/30 05:20:09;;;;;;;10.20;7.70;;;11.90;99.90;;;;;;5043978;28;20634;-90
2022/10/30 05:22:36;;;;;;;13.43;8.13;;;12.10;99.90;;;;;;5041865;28;20641;-89
2022/10/30 05:25:03;;;;;;;12.33;7.00;;;11.80;99.90;;;;;;5047243;28;21190;-90
2022/10/30 05:27:30;;;;;;;12.40;7.73;;;12.10;99.90;;;;;;5044859;28;21010;-90
2022/10/30 05:29:58;;;;;;;11.93;8.20;;;12.10;99.90;;;;;;5041962;28;20633;-89
2022/10/30 05:32:24;;;;;;;10.03;7.83;;;11.90;99.90;;;;;;5040806;28;20626;-89
2022/10/30 05:34:51;;;;;;;10.80;7.17;;;11.90;99.90;;;;;;5046266;28;20693;-90
2022/10/30 05:37:18;;;;;;;13.87;7.27;;;12.00;99.90;;;;;;5043743;28;20658;-89
2022/10/30 05:39:45;;;;;;;11.30;7.73;;;11.80;99.90;;;;;;5043168;28;20630;-89
2022/10/30 05:42:12;;;;;;;14.00;7.20;;;11.70;99.90;;;;;;5041893;28;20641;-90
2022/10/30 05:44:38;;;;;;;11.60;7.50;;;12.00;99.90;;;;;;5039992;28;20661;-89
2022/10/30 05:47:06;;;;;;;13.53;6.60;;;11.60;99.90;;;;;;5040156;28;21119;-90
2022/10/30 05:49:33;;;;;;;13.43;7.57;;;11.90;99.90;;;;;;5045630;28;20629;-90
2022/10/30 05:52:00;;;;;;;13.70;7.10;;;12.00;99.90;;;;;;5043222;28;20621;-90
2022/10/30 05:54:26;;;;;;;9.60;6.77;;;11.60;99.90;;;;;;5037891;28;20670;-90
2022/10/30 05:56:53;;;;;;;13.20;6.83;;;12.00;99.90;;;;;;5049573;28;20642;-89
2022/10/30 05:59:20;;;;;;;9.17;6.80;;;11.50;99.90;;;;;;5045263;28;20634;-90
2022/10/30 06:01:47;;;;;;;9.80;6.50;;;11.90;99.90;;;;;;5040428;28;20633;-90
2022/10/30 06:04:15;;;;;;;12.13;6.67;;;11.70;99.90;;;;;;5041552;28;20622;-90
2022/10/30 06:06:42;;;;;;;10.87;6.53;;;11.90;99.90;;;;;;5043933;28;20687;-89
2022/10/30 06:09:08;;;;;;;9.23;7.83;;;11.90;99.90;;;;;;5047408;28;20633;-89
2022/10/30 06:11:35;;;;;;;12.10;7.17;;;11.80;99.90;;;;;;5039734;28;20615;-90
2022/10/30 06:14:02;;;;;;;8.07;6.23;;;11.80;99.90;;;;;;5040701;28;20622;-89
2022/10/30 06:16:29;;;;;;;15.97;8.03;;;11.90;99.90;;;;;;5039866;28;20668;-89
2022/10/30 06:18:56;;;;;;;11.93;7.30;;;11.80;99.90;;;;;;5036064;28;20671;-90
2022/10/30 06:21:24;;;;;;;9.80;7.00;;;11.80;99.90;;;;;;5043103;28;20630;-90
2022/10/30 06:23:51;;;;;;;12.20;7.23;;;11.60;99.90;;;;;;5043813;28;20641;-89
2022/10/30 06:26:17;;;;;;;11.27;7.27;;;11.50;99.90;;;;;;5042784;28;20670;-90
2022/10/30 06:28:44;;;;;;;12.77;8.27;;;11.50;99.90;;;;;;5044833;28;20635;-90
2022/10/30 06:31:11;;;;;;;12.20;7.87;;;11.50;99.90;;;;;;5038662;28;20738;-89
2022/10/30 06:33:38;;;;;;;12.20;7.90;;;11.40;99.90;;;;;;5047790;28;20629;-89
2022/10/30 06:36:05;;;;;;;14.00;7.63;;;12.00;99.90;;;;;;5044071;28;20692;-89
2022/10/30 06:38:33;;;;;;;11.83;8.00;;;12.00;99.90;;;;;;5045007;28;20661;-89
2022/10/30 06:41:00;;;;;;;10.37;7.77;;;11.80;99.90;;;;;;5046732;28;20622;-89
2022/10/30 06:43:27;;;;;;;13.80;8.00;;;11.90;99.90;;;;;;5049981;28;20626;-90
2022/10/30 06:45:54;;;;;;;13.07;7.40;;;11.60;99.90;;;;;;5045253;28;20644;-90
2022/10/30 06:48:21;;;;;;;8.37;6.90;;;11.50;99.90;;;;;;5043054;28;20629;-90
2022/10/30 06:50:53;;;;;;;14.63;8.50;;;11.90;99.90;;;;;;5042403;28;21354;-89
2022/10/30 06:53:20;;;;;;;14.43;8.37;;;11.80;99.90;;;;;;5045985;28;20609;-89
2022/10/30 06:55:55;;;;;;;12.63;8.00;;;12.20;99.90;;;;;;5040110;28;20665;-90
2022/10/30 06:58:22;;;;;;;17.57;8.40;;;12.10;99.90;;;;;;5046985;28;20629;-90
2022/10/30 07:00:49;;;;;;;12.93;8.37;;;12.30;99.90;;;;;;5044529;28;20645;-90
2022/10/30 07:03:16;;;;;;;13.07;7.60;;;12.00;99.90;;;;;;5049648;28;20626;-89
2022/10/30 07:05:43;;;;;;;13.23;8.40;;;12.30;99.90;;;;;;5048957;28;20999;-90
2022/10/30 07:08:10;;;;;;;15.90;8.60;;;12.20;99.90;;;;;;5040617;28;20624;-90
2022/10/30 07:10:36;;;;;;;10.60;7.80;;;12.40;99.90;;;;;;5042195;28;20990;-90
2022/10/30 07:13:05;;;;;;;11.53;8.13;;;12.50;99.90;;;;;;5048435;28;20629;-90
2022/10/30 07:15:31;;;;;;;9.50;8.23;;;12.60;99.90;;;;;;5042889;28;20670;-90
2022/10/30 07:18:00;;;;;;;14.00;8.30;;;12.60;99.90;;;;;;5054097;28;20688;-90
2022/10/30 07:20:28;;;;;;;22.40;8.20;;;12.70;99.90;;;;;;5064368;28;20633;-90
2022/10/30 07:22:55;;;;;;;11.70;8.30;;;12.40;99.90;;;;;;5062242;28;20603;-90
2022/10/30 07:25:22;;;;;;;11.70;7.47;;;12.70;99.90;;;;;;5063614;28;20615;-90
2022/10/30 07:27:51;;;;;;;13.97;7.90;;;12.90;99.90;;;;;;5065082;28;20664;-91
2022/10/30 07:30:20;;;;;;;14.87;8.80;;;12.50;99.90;;;;;;5059672;28;20627;-90
2022/10/30 07:32:56;;;;;;;12.03;8.40;;;12.90;99.90;;;;;;5063276;28;20625;-91
2022/10/30 07:35:23;;;;;;;24.23;21.63;;;13.00;99.90;;;;;;5046423;28;20653;-91
2022/10/30 07:37:49;;;;;;;19.03;12.37;;;13.10;99.90;;;;;;5043706;28;20669;-90
2022/10/30 07:40:18;;;;;;;10.60;8.47;;;13.20;99.90;;;;;;5048186;28;20626;-91
2022/10/30 07:42:45;;;;;;;14.80;8.40;;;12.90;99.90;;;;;;5040311;28;20968;-91
2022/10/30 07:45:11;;;;;;;13.77;7.93;;;13.10;99.90;;;;;;5038066;28;20637;-90
2022/10/30 07:47:41;;;;;;;15.33;7.73;;;13.30;99.90;;;;;;5043471;28;20654;-91
2022/10/30 07:50:11;;;;;;;17.23;8.10;;;13.40;99.90;;;;;;5046633;28;20630;-90
2022/10/30 07:52:37;;;;;;;11.33;7.10;;;13.60;99.90;;;;;;5046400;28;20632;-90
2022/10/30 07:55:05;;;;;;;15.57;7.07;;;13.60;99.90;;;;;;5041626;28;20667;-91
2022/10/30 07:57:35;;;;;;;11.40;7.10;;;13.60;99.90;;;;;;5042579;28;20661;-91
2022/10/30 08:00:03;;;;;;;8.60;7.37;;;13.70;99.90;;;;;;5050513;28;20625;-91
2022/10/30 08:02:30;;;;;;;8.80;6.57;;;13.80;99.90;;;;;;5042518;28;20638;-91
2022/10/30 08:04:58;;;;;;;12.40;6.93;;;13.80;99.90;;;;;;5038804;28;20622;-90
2022/10/30 08:07:31;;;;;;;12.37;6.30;;;14.00;99.90;;;;;;5038007;28;20647;-90
2022/10/30 08:09:58;;;;;;;12.90;6.80;;;14.20;99.90;;;;;;5040596;28;20780;-90
2022/10/30 08:12:24;;;;;;;14.63;6.33;;;14.30;99.90;;;;;;5043434;28;20620;-91
2022/10/30 08:14:52;;;;;;;9.43;6.17;;;14.40;99.90;;;;;;5037306;28;20666;-92
2022/10/30 08:17:19;;;;;;;10.90;6.60;;;14.50;99.90;;;;;;5043292;28;20651;-92
2022/10/30 08:19:46;;;;;;;11.80;6.80;;;14.60;99.90;;;;;;5048779;28;20626;-93
2022/10/30 08:22:15;;;;;;;11.50;7.27;;;14.70;99.90;;;;;;5042743;28;20995;-92
2022/10/30 08:24:43;;;;;;;10.50;6.47;;;14.80;99.90;;;;;;5043218;28;21190;-92
2022/10/30 08:27:09;;;;;;;10.00;7.70;;;14.90;99.90;;;;;;5046351;28;20741;-90
2022/10/30 08:29:37;;;;;;;10.37;6.20;;;14.90;99.90;;;;;;5041653;28;20629;-91
2022/10/30 08:32:05;;;;;;;11.90;7.20;;;15.00;99.90;;;;;;5045457;28;20606;-90
2022/10/30 08:34:33;;;;;;;10.93;7.10;;;15.20;99.90;;;;;;5039938;28;20641;-89
2022/10/30 08:37:00;;;;;;;11.80;7.63;;;15.20;99.90;;;;;;5043373;28;21230;-91
2022/10/30 08:39:28;;;;;;;16.73;7.43;;;15.30;99.90;;;;;;5043533;28;20625;-92
2022/10/30 08:41:58;;;;;;;11.83;6.60;;;15.40;99.90;;;;;;5042618;28;20649;-91
2022/10/30 08:44:25;;;;;;;17.60;6.73;;;15.50;99.90;;;;;;5036613;28;20667;-90
2022/10/30 08:46:52;;;;;;;11.07;6.33;;;15.50;99.90;;;;;;5041505;28;21022;-90
2022/10/30 08:49:18;;;;;;;12.00;8.00;;;15.60;99.90;;;;;;5029507;28;20623;-93
2022/10/30 08:51:45;;;;;;;15.17;7.43;;;15.60;99.90;;;;;;5046326;28;20693;-93
2022/10/30 08:54:12;;;;;;;13.70;7.80;;;15.80;99.90;;;;;;5044695;28;20629;-93
2022/10/30 08:56:40;;;;;;;12.50;7.87;;;15.90;99.90;;;;;;5040021;28;20686;-93
2022/10/30 08:59:07;;;;;;;13.77;7.93;;;16.00;99.90;;;;;;5046938;28;20959;-93
2022/10/30 09:01:35;;;;;;;12.93;7.70;;;16.00;99.90;;;;;;5046943;28;20632;-92
2022/10/30 09:04:02;;;;;;;15.73;6.70;;;16.10;99.90;;;;;;5039662;28;20703;-92
2022/10/30 09:06:30;;;;;;;13.57;7.10;;;16.30;99.90;;;;;;5044036;28;20673;-90
2022/10/30 09:08:58;;;;;;;13.00;7.70;;;16.40;99.90;;;;;;5047798;28;20640;-91
2022/10/30 09:11:25;;;;;;;16.07;6.90;;;16.50;99.90;;;;;;5042044;28;20654;-90
2022/10/30 09:13:54;;;;;;;12.80;7.73;;;16.70;99.90;;;;;;5045640;28;20763;-93
2022/10/30 09:16:21;;;;;;;9.80;6.57;;;16.90;99.90;;;;;;5052698;28;20679;-91
2022/10/30 09:18:49;;;;;;;10.57;6.50;;;17.00;99.90;;;;;;5047312;28;20666;-94
2022/10/30 09:21:16;;;;;;;9.77;5.87;;;17.10;99.90;;;;;;5039431;28;20633;-95
2022/10/30 09:23:43;;;;;;;16.70;7.00;;;17.40;99.90;;;;;;5041106;28;20713;-95
2022/10/30 09:26:10;;;;;;;14.80;6.53;;;17.70;99.90;;;;;;5040980;28;20651;-95
2022/10/30 09:28:37;;;;;;;7.67;5.70;;;17.90;99.90;;;;;;5046001;28;20649;-93
2022/10/30 09:31:05;;;;;;;10.03;5.00;;;18.20;99.90;;;;;;5042007;28;20645;-93
2022/10/30 09:33:33;;;;;;;8.50;5.70;;;18.40;99.90;;;;;;5043732;28;20641;-96
2022/10/30 09:36:01;;;;;;;14.27;6.90;;;18.70;99.90;;;;;;5052480;28;20653;-95
2022/10/30 09:38:29;;;;;;;13.10;5.23;;;18.90;99.90;;;;;;5048562;28;20688;-94
2022/10/30 09:41:19;;;;;;;9.00;4.90;;;19.20;99.90;;;;;;5044471;28;20733;-94
2022/10/30 09:44:00;;;;;;;6.83;4.70;;;19.40;99.90;;;;;;5052688;28;20716;-95
2022/10/30 09:46:47;;;;;;;11.20;6.10;;;19.60;99.90;;;;;;5061634;28;20625;-95
2022/10/30 10:08:14;;;;;;;11.30;5.60;;;21.90;99.90;;;;;;4991132;28;20675;-95
2022/10/30 10:10:44;;;;;;;6.83;6.20;;;22.20;99.90;;;;;;4996777;28;20604;-96
2022/10/30 10:13:22;;;;;;;7.57;4.70;;;22.60;99.90;;;;;;5001771;28;20704;-94
2022/10/30 10:15:51;;;;;;;10.43;5.43;;;22.80;99.90;;;;;;5001038;28;20626;-96
2022/10/30 10:18:23;;;;;;;7.53;5.07;;;23.10;99.90;;;;;;5002337;28;20640;-96
2022/10/30 10:21:09;;;;;;;5.60;4.17;;;23.40;99.90;;;;;;4993270;28;20628;-93
2022/10/30 10:23:48;;;;;;;8.87;5.23;;;23.70;99.00;;;;;;4983872;28;20659;-94
2022/10/30 10:26:29;;;;;;;13.93;5.77;;;24.00;96.30;;;;;;4981887;28;20971;-95
2022/10/30 10:29:28;;;;;;;7.33;4.53;;;24.00;96.30;;;;;;4989378;28;20624;-94
2022/10/30 10:32:23;;;;;;;10.20;5.60;;;24.30;95.70;;;;;;4982755;28;20616;-95
2022/10/30 10:35:34;;;;;;;8.10;5.13;;;24.50;93.10;;;;;;4978007;28;20657;-94
2022/10/30 10:38:16;;;;;;;17.87;6.97;;;24.60;92.90;;;;;;4971684;28;20629;-94
2022/10/30 10:40:54;;;;;;;9.00;4.70;;;25.00;91.80;;;;;;4982302;28;20623;-93
2022/10/30 10:43:42;;;;;;;11.50;5.07;;;25.40;90.20;;;;;;4980210;28;20629;-94
2022/10/30 10:46:27;;;;;;;11.10;5.53;;;25.70;89.80;;;;;;4978351;28;20657;-95
2022/10/30 10:49:06;;;;;;;8.97;4.60;;;25.90;83.50;;;;;;4977493;28;20617;-94
2022/10/30 10:51:38;;;;;;;13.37;6.40;;;25.90;81.10;;;;;;4974439;28;20625;-95
2022/10/30 10:54:11;;;;;;;9.53;4.60;;;26.10;82.10;;;;;;4972720;28;20649;-95
2022/10/30 10:56:43;;;;;;;9.40;4.60;;;26.40;77.60;;;;;;4974152;28;20632;-95
2022/10/30 10:59:16;;;;;;;7.00;4.13;;;26.60;76.80;;;;;;4975071;28;20582;-95
2022/10/30 11:01:49;;;;;;;8.20;4.77;;;26.90;76.10;;;;;;4971544;28;20672;-95
2022/10/30 11:04:24;;;;;;;7.73;4.90;;;27.10;73.00;;;;;;4975408;28;20664;-94
2022/10/30 11:06:53;;;;;;;7.97;4.67;;;27.40;72.80;;;;;;4977115;28;20661;-95
2022/10/30 11:09:22;;;;;;;10.67;4.10;;;27.70;72.70;;;;;;4974606;28;20616;-94
2022/10/30 11:11:51;;;;;;;8.63;4.20;;;28.00;71.50;;;;;;4973793;28;20641;-96
2022/10/30 11:14:20;;;;;;;9.37;4.90;;;28.10;69.90;;;;;;4979362;28;20663;-94
2022/10/30 11:17:02;;;;;;;9.33;4.13;;;28.30;67.80;;;;;;4972113;28;20636;-95
2022/10/30 11:19:30;;;;;;;5.03;4.00;;;28.30;66.80;;;;;;4974734;28;20638;-93
2022/10/30 11:21:58;;;;;;;6.13;4.13;;;28.60;65.90;;;;;;4974951;28;20750;-94
2022/10/30 11:24:31;;;;;;;5.70;4.50;;;28.80;65.60;;;;;;4973189;28;21089;-93
2022/10/30 11:27:17;;;;;;;6.17;4.17;;;29.20;62.90;;;;;;4973167;28;20665;-95
2022/10/30 11:29:51;;;;;;;6.03;4.20;;;29.60;61.90;;;;;;4973689;28;20984;-96
2022/10/30 11:32:21;;;;;;;9.90;4.50;;;29.80;60.40;;;;;;4980453;28;20689;-95
2022/10/30 11:35:01;;;;;;;9.90;5.07;;;29.90;59.40;;;;;;4984450;28;20678;-95
2022/10/30 11:37:33;;;;;;;12.57;4.50;;;30.20;58.10;;;;;;4972978;28;20640;-94
2022/10/30 11:40:06;;;;;;;7.60;4.77;;;30.20;56.40;;;;;;4979019;28;20621;-94
2022/10/30 11:42:36;;;;;;;9.80;4.17;;;30.20;56.80;;;;;;4979477;28;20623;-95
2022/10/30 11:45:04;;;;;;;9.80;4.97;;;30.50;56.50;;;;;;4974774;28;20680;-95
2022/10/30 11:47:33;;;;;;;6.60;4.20;;;30.50;55.30;;;;;;4977819;28;21103;-95
2022/10/30 11:50:03;;;;;;;10.07;4.33;;;30.50;54.60;;;;;;4974837;28;20830;-96
2022/10/30 11:52:38;;;;;;;9.37;3.60;;;30.50;54.20;;;;;;4973793;28;20629;-96
2022/10/30 11:55:14;;;;;;;6.33;4.00;;;30.80;54.10;;;;;;4971461;28;20660;-94
2022/10/30 11:57:44;;;;;;;8.43;4.53;;;30.90;53.40;;;;;;4977450;28;20699;-95
2022/10/30 12:00:17;;;;;;;8.90;4.40;;;30.90;52.60;;;;;;4975106;28;20686;-96
2022/10/30 12:02:46;;;;;;;9.87;5.50;;;30.60;52.20;;;;;;4980458;28;20632;-95
2022/10/30 12:05:37;;;;;;;11.63;4.23;;;30.50;52.40;;;;;;4956385;28;21186;-96
2022/10/30 12:08:21;;;;;;;6.90;4.40;;;30.50;52.70;;;;;;4971294;28;21253;-95
2022/10/30 12:11:01;;;;;;;10.50;5.10;;;30.60;53.00;;;;;;4973206;28;20625;-95
2022/10/30 12:13:36;;;;;;;8.23;4.60;;;30.60;53.20;;;;;;4974636;28;20671;-95
2022/10/30 12:16:18;;;;;;;6.03;4.00;;;30.40;53.10;;;;;;4970440;28;20612;-95
2022/10/30 12:18:59;;;;;;;9.90;4.27;;;30.30;53.30;;;;;;4974206;28;21143;-95
2022/10/30 12:21:28;;;;;;;4.33;3.90;;;30.00;53.50;;;;;;4994209;28;20609;-95
2022/10/30 12:24:05;;;;;;;6.77;3.23;;;30.00;53.50;;;;;;4994813;28;20659;-93
2022/10/30 12:26:35;;;;;;;8.17;4.53;;;30.10;53.80;;;;;;4993435;28;20656;-95
2022/10/30 12:29:07;;;;;;;8.50;4.80;;;30.10;54.00;;;;;;4998468;28;20664;-95
2022/10/30 12:31:38;;;;;;;6.33;4.27;;;29.90;54.10;;;;;;4996777;28;20610;-96
2022/10/30 12:34:15;;;;;;;7.30;4.30;;;30.00;54.40;;;;;;4981437;28;20659;-96
2022/10/30 12:36:48;;;;;;;7.23;4.73;;;29.90;54.70;;;;;;4996891;28;20620;-95
2022/10/30 12:39:21;;;;;;;7.20;4.67;;;30.10;54.20;;;;;;4982857;28;20603;-95
2022/10/30 12:41:57;;;;;;;6.90;4.83;;;30.40;54.70;;;;;;4991776;28;20617;-94
2022/10/30 12:44:30;;;;;;;7.80;4.80;;;30.60;54.60;;;;;;4988930;28;20826;-95
2022/10/30 12:47:02;;;;;;;7.03;3.93;;;30.60;54.40;;;;;;4994424;28;20670;-95
2022/10/30 12:49:39;;;;;;;12.03;4.87;;;30.50;54.50;;;;;;4984885;28;20597;-95
2022/10/30 12:52:11;;;;;;;6.27;4.90;;;30.50;54.10;;;;;;4989215;28;20621;-96
2022/10/30 12:54:44;;;;;;;6.13;4.40;;;30.30;54.30;;;;;;4988715;28;21178;-96
2022/10/30 12:57:14;;;;;;;7.23;4.47;;;30.20;54.90;;;;;;4972771;28;20617;-95
2022/10/30 12:59:55;;;;;;;6.83;4.17;;;30.30;55.00;;;;;;4970526;28;20633;-95
2022/10/30 13:02:32;;;;;;;9.23;4.30;;;30.00;54.70;;;;;;4971269;28;20617;-94
2022/10/30 13:05:02;;;;;;;9.03;4.63;;;29.90;54.80;;;;;;4975018;28;20656;-94
2022/10/30 13:07:34;;;;;;;5.20;4.10;;;30.10;55.40;;;;;;4970369;28;20700;-93
2022/10/30 13:10:16;;;;;;;6.73;4.30;;;30.00;54.60;;;;;;4977985;28;20617;-95
2022/10/30 13:12:46;;;;;;;6.63;4.47;;;30.20;55.60;;;;;;4972397;28;20665;-94
2022/10/30 13:15:22;;;;;;;9.17;4.67;;;30.20;55.10;;;;;;4974517;28;20653;-94